Flight Track Log - Related Links

Times and Time Zones

All times are in EDT time to prevent confusion due to time zone crossing. See the VRT51 flight status page for this flight to view local times or setup timezone preferences in your user account.


Time Position Orientation Groundspeed Altitude Reporting Facility
EDT Latitude Longitude Course Direction KTS MPH feet Rate Location/Type
Sun 11:47:35 AM 36.1000 -86.6833 149° Southeast 168 193 1,300  Level Nashville TRACON
Sun 11:48:53 AM 36.0333 -86.6333 149° Southeast 274 315 4,000 1,318 Climbing Nashville TRACON
Sun 11:49:47 AM 36.0000 -86.5667 122° Southeast 277 319 4,200 1,353 Climbing Nashville TRACON
Sun 11:50:35 AM 36.0167 -86.4833 76° East 302 348 6,300 2,886 Climbing Nashville TRACON
Sun 11:51:06 AM 36.0169 -86.4281 90° East 313 360 8,000 3,758 Climbing Memphis Center
Sun 11:52:06 AM 36.0344 -86.3219 78° East 363 418 12,000 3,500 Climbing Memphis Center
Sun 11:53:06 AM 36.0619 -86.2078 73° East 339 390 15,000 1,500 Climbing Memphis Center
Sun 11:54:06 AM 36.0633 -86.0586 89° East 383 441 15,000  Level Memphis Center
Sun 11:55:06 AM 36.0169 -85.9278 114° Southeast 404 465 15,000 34 Level Memphis Center
Sun 11:57:05 AM 35.9786 -85.6733 100° East 391 450 15,100 34 Climbing Atlanta Center
Sun 11:58:05 AM 35.9489 -85.5522 107° East 374 430 15,100  Level Atlanta Center
Sun 11:59:05 AM 35.9003 -85.4308 116° Southeast 374 430 15,100  Level Atlanta Center
Sun 12:00:05 PM 35.8536 -85.3094 115° Southeast 405 466 15,100  Level Atlanta Center
Sun 12:01:05 PM 35.8069 -85.1858 115° Southeast 410 472 15,100  Level Atlanta Center
Sun 12:02:05 PM 35.7600 -85.0675 116° Southeast 398 458 15,100  Level Atlanta Center
Sun 12:03:05 PM 35.7128 -84.9467 116° Southeast 391 450 15,100  Level Atlanta Center
Sun 12:04:05 PM 35.6656 -84.8286 116° Southeast 385 443 15,100  Level Atlanta Center
Sun 12:05:05 PM 35.6206 -84.7106 115° Southeast 385 443 15,100 -50 Level Atlanta Center
Sun 12:06:05 PM 35.5753 -84.5928 115° Southeast 385 443 15,000 -100 Descending Atlanta Center
Sun 12:07:05 PM 35.5256 -84.4725 117° Southeast 385 443 14,900 -50 Descending Atlanta Center
Sun 12:08:05 PM 35.4800 -84.3550 115° Southeast 385 443 14,900  Level Atlanta Center
Sun 12:09:05 PM 35.4344 -84.2400 116° Southeast 385 443 14,900 -500 Level Atlanta Center
Sun 12:10:05 PM 35.3886 -84.1253 116° Southeast 385 443 13,900 -1,250 Descending Atlanta Center
Sun 12:11:05 PM 35.3428 -84.0108 116° Southeast 380 437 12,400 -1,450 Descending Atlanta Center
Sun 12:12:05 PM 35.2967 -83.8989 117° Southeast 375 432 11,000 -750 Descending Atlanta Center
Sun 12:13:05 PM 35.2528 -83.7869 116° Southeast 370 426 10,900 -200 Descending Atlanta Center
Sun 12:14:05 PM 35.2086 -83.6753 116° Southeast 365 420 10,600 -500 Descending Atlanta Center
Sun 12:15:05 PM 35.1644 -83.5686 117° Southeast 365 420 9,900 -950 Descending Atlanta Center
Sun 12:16:05 PM 35.1244 -83.4775 118° Southeast 337 388 8,700 -1,150 Descending Atlanta Center
Sun 12:17:05 PM 35.0906 -83.3889 115° Southeast 303 349 7,600 -750 Descending Atlanta Center
Sun 12:18:05 PM 35.0567 -83.3106 118° Southeast 283 326 7,200 -150 Descending Atlanta Center
Sun 12:19:05 PM 35.0250 -83.2247 114° Southeast 267 307 7,300 50 Climbing Atlanta Center
Sun 12:20:05 PM 34.9847 -83.1336 118° Southeast 267 307 7,300 -100 Level Atlanta Center
Sun 12:21:05 PM 34.9756 -83.0503 98° East 252 290 7,100 -150 Descending Atlanta Center
Sun 12:22:05 PM 34.9875 -82.9561 81° East 257 296 7,000 -50 Descending Atlanta Center
Sun 12:23:05 PM 34.9969 -82.8547 83° East 280 322 7,000 -300 Level Atlanta Center
Sun 12:24:05 PM 35.0064 -82.7581 83° East 286 329 6,400 -750 Descending Atlanta Center
Sun 12:25:05 PM 35.0158 -82.6692 83° East 281 323 5,500 -800 Descending Atlanta Center
Sun 12:26:05 PM 35.0106 -82.5831 94° East 265 305 4,800 -750 Descending Atlanta Center
Sun 12:27:05 PM 34.9622 -82.5383 143° Southeast 207 238 4,000 -750 Descending Atlanta Center
Sun 12:28:05 PM 34.9189 -82.5747 215° Southwest 144 166 3,300 -350 Descending Atlanta Center
Sun 12:29:05 PM 34.8811 -82.5625 165° South 144 166 3,300 1,850 Level Atlanta Center
Sun 12:30:05 PM 34.8392 -82.5583 175° South 144 166 7,000 3,700 Climbing Atlanta Center
Sun 12:32:00 PM 34.8000 -82.7000 219° Southwest  Level FlightAware Approximate
Sun 12:39:00 PM 34.8100 -82.7029 219° Southwest  Level Estimated
Sun 12:40:00 PM 34.8100 -82.7029 219° Southwest  Level Estimated

Login

Don't have an account? Register now (free) for customized features, flight alerts, and more!